Time;durP1;ratioP1;P1;durP2;ratioP2;P2;SDS_P1;SDS_P2;PMS_P1;PMS_P2;Temp;Humidity;BMP_temperature;BMP_pressure;BME280_temperature;BME280_humidity;BME280_pressure;Samples;Min_cycle;Max_cycle;Signal;HPM_P1;HPM_P2
2021/08/06 00:02:00;;;;;;;2.22;0.95;;;22.80;90.50;;;;;;4931608;29;20023;-75
2021/08/06 00:04:26;;;;;;;2.17;1.20;;;22.80;90.50;;;;;;4931612;28;20557;-75
2021/08/06 00:06:51;;;;;;;1.83;1.20;;;22.80;90.70;;;;;;4930971;29;20027;-74
2021/08/06 00:09:17;;;;;;;2.17;1.02;;;22.80;90.70;;;;;;4931428;28;20024;-75
2021/08/06 00:11:42;;;;;;;1.65;0.95;;;22.80;90.70;;;;;;4930946;28;20031;-75
2021/08/06 00:14:08;;;;;;;2.28;1.10;;;22.80;90.70;;;;;;4931254;29;20115;-75
2021/08/06 00:16:34;;;;;;;2.65;1.20;;;22.70;90.70;;;;;;4931058;29;20028;-75
2021/08/06 00:19:00;;;;;;;3.10;1.10;;;22.70;90.70;;;;;;4930775;28;20028;-75
2021/08/06 00:21:26;;;;;;;2.55;1.25;;;22.70;90.80;;;;;;4931200;29;20440;-75
2021/08/06 00:23:52;;;;;;;1.98;0.95;;;22.70;90.80;;;;;;4931134;28;20024;-75
2021/08/06 00:26:18;;;;;;;3.42;0.93;;;22.70;90.80;;;;;;4931160;29;20035;-74
2021/08/06 00:28:44;;;;;;;1.65;0.80;;;22.70;90.80;;;;;;4930654;29;20012;-75
2021/08/06 00:31:10;;;;;;;1.48;0.85;;;22.70;90.80;;;;;;4930974;29;20043;-75
2021/08/06 00:33:36;;;;;;;1.23;0.77;;;22.70;91.00;;;;;;4930599;29;20024;-75
2021/08/06 00:36:02;;;;;;;3.55;0.93;;;22.70;91.10;;;;;;4931128;29;20483;-75
2021/08/06 00:38:28;;;;;;;1.88;0.90;;;22.70;91.30;;;;;;4930757;29;20020;-75
2021/08/06 00:40:54;;;;;;;2.72;1.10;;;22.70;91.30;;;;;;4931207;29;20097;-75
2021/08/06 00:43:20;;;;;;;1.48;1.00;;;22.70;91.40;;;;;;4930609;29;20027;-75
2021/08/06 00:45:46;;;;;;;2.25;1.20;;;22.70;91.60;;;;;;4930514;29;20040;-75
2021/08/06 00:48:12;;;;;;;2.30;1.10;;;22.70;91.60;;;;;;4930639;28;20036;-75
2021/08/06 00:50:38;;;;;;;1.08;0.80;;;22.70;91.80;;;;;;4930584;29;20083;-75
2021/08/06 00:53:04;;;;;;;1.60;0.82;;;22.80;92.00;;;;;;4930922;29;20051;-75
2021/08/06 00:55:29;;;;;;;1.42;0.80;;;22.70;92.30;;;;;;4930502;29;20066;-75
2021/08/06 00:57:55;;;;;;;1.98;1.08;;;22.70;92.50;;;;;;4929506;29;20032;-75
2021/08/06 01:00:21;;;;;;;2.08;0.82;;;22.70;92.60;;;;;;4929470;29;20082;-75
2021/08/06 01:03:04;;;;;;;0.80;0.68;;;22.70;92.70;;;;;;4930447;29;20042;-75
2021/08/06 01:05:40;;;;;;;1.50;0.90;;;22.70;92.80;;;;;;4928824;29;20047;-75
2021/08/06 01:08:20;;;;;;;1.23;0.90;;;22.70;92.90;;;;;;4929184;29;20032;-75
2021/08/06 01:10:54;;;;;;;1.77;0.90;;;22.70;92.90;;;;;;4930520;29;20103;-75
2021/08/06 01:13:45;;;;;;;2.42;1.00;;;22.70;93.00;;;;;;4930740;29;20051;-75
2021/08/06 01:16:12;;;;;;;1.45;0.90;;;22.70;93.00;;;;;;4929911;28;20127;-75
2021/08/06 01:18:52;;;;;;;2.70;1.40;;;22.70;93.00;;;;;;4930051;29;20034;-75
2021/08/06 01:21:20;;;;;;;1.65;1.05;;;22.70;93.10;;;;;;4930524;29;20034;-75
2021/08/06 01:23:47;;;;;;;1.63;1.10;;;22.70;93.10;;;;;;4930117;28;20070;-75
2021/08/06 01:26:17;;;;;;;2.35;1.10;;;22.70;93.10;;;;;;4930268;29;20028;-75
2021/08/06 01:28:46;;;;;;;1.70;0.90;;;22.70;93.10;;;;;;4930413;29;20023;-75
2021/08/06 01:31:12;;;;;;;1.13;0.80;;;22.70;93.00;;;;;;4930278;29;20022;-75
2021/08/06 01:33:38;;;;;;;1.65;0.90;;;22.70;93.00;;;;;;4933028;28;20392;-75
2021/08/06 01:36:05;;;;;;;2.28;0.95;;;22.70;93.10;;;;;;4933435;29;20035;-75
2021/08/06 01:38:30;;;;;;;2.47;1.00;;;22.70;93.10;;;;;;4933270;29;20102;-75
2021/08/06 01:41:32;;;;;;;1.73;0.85;;;22.70;93.10;;;;;;4933681;29;20452;-75
2021/08/06 01:44:12;;;;;;;1.33;0.70;;;22.60;93.10;;;;;;4933261;29;20536;-75
2021/08/06 01:47:14;;;;;;;3.17;1.20;;;22.60;93.20;;;;;;4933329;29;20099;-75
2021/08/06 01:49:48;;;;;;;1.67;0.73;;;22.60;93.30;;;;;;4947580;28;20055;-74
2021/08/06 01:52:20;;;;;;;1.38;0.80;;;22.60;93.20;;;;;;4931985;29;20467;-74
2021/08/06 01:54:50;;;;;;;3.13;0.88;;;22.60;93.30;;;;;;4933082;29;20056;-74
2021/08/06 01:57:16;;;;;;;1.08;0.60;;;22.60;93.30;;;;;;4933174;29;20074;-75
2021/08/06 01:59:43;;;;;;;0.95;0.73;;;22.60;93.40;;;;;;4932909;29;20035;-74
2021/08/06 02:02:10;;;;;;;1.00;0.60;;;22.60;93.30;;;;;;4932015;29;20545;-75
2021/08/06 02:04:36;;;;;;;2.05;0.68;;;22.60;93.30;;;;;;4932625;29;20040;-74
2021/08/06 02:07:02;;;;;;;3.00;0.55;;;22.60;93.30;;;;;;4933022;29;20557;-75
2021/08/06 02:09:28;;;;;;;1.23;0.70;;;22.60;93.40;;;;;;4932937;29;20047;-74
2021/08/06 02:11:54;;;;;;;1.20;0.70;;;22.60;93.30;;;;;;4933306;28;20051;-75
2021/08/06 02:14:21;;;;;;;2.10;0.85;;;22.60;93.30;;;;;;4932782;29;20034;-74
2021/08/06 02:16:49;;;;;;;2.00;0.90;;;22.60;93.20;;;;;;4932425;29;20031;-75
2021/08/06 02:19:17;;;;;;;1.20;0.73;;;22.60;93.30;;;;;;4932579;29;20097;-74
2021/08/06 02:21:46;;;;;;;3.25;0.85;;;22.60;93.30;;;;;;4932784;29;20028;-75
2021/08/06 02:24:13;;;;;;;1.67;0.80;;;22.60;93.20;;;;;;4932782;29;20034;-75
2021/08/06 02:26:42;;;;;;;1.30;0.60;;;22.50;93.20;;;;;;4932545;29;20036;-75
2021/08/06 02:29:11;;;;;;;1.15;0.75;;;22.60;93.20;;;;;;4931575;28;20048;-75
2021/08/06 02:31:38;;;;;;;1.73;0.77;;;22.50;93.20;;;;;;4932248;29;20099;-75
2021/08/06 02:34:04;;;;;;;1.42;0.80;;;22.50;93.30;;;;;;4932791;29;20024;-75
2021/08/06 02:36:30;;;;;;;1.63;0.90;;;22.50;93.20;;;;;;4932621;29;20403;-75
2021/08/06 02:38:59;;;;;;;2.25;0.90;;;22.50;93.20;;;;;;4932883;29;20028;-75
2021/08/06 02:41:28;;;;;;;3.72;0.90;;;22.50;93.20;;;;;;4932753;29;20107;-75
2021/08/06 02:43:54;;;;;;;1.20;0.60;;;22.50;93.20;;;;;;4932082;29;20032;-75
2021/08/06 02:46:19;;;;;;;1.25;0.60;;;22.50;93.20;;;;;;4932579;28;20154;-75
2021/08/06 02:48:45;;;;;;;1.83;0.82;;;22.50;93.30;;;;;;4932179;28;20074;-75
2021/08/06 02:51:11;;;;;;;1.48;0.80;;;22.50;93.20;;;;;;4932488;29;20032;-75
2021/08/06 02:53:37;;;;;;;2.67;0.73;;;22.50;93.20;;;;;;4932178;29;20569;-74
2021/08/06 02:56:03;;;;;;;1.27;0.70;;;22.50;93.30;;;;;;4932517;29;20035;-75
2021/08/06 02:58:29;;;;;;;0.75;0.60;;;22.40;93.10;;;;;;4932253;29;20034;-75
2021/08/06 03:00:54;;;;;;;1.23;0.70;;;22.40;93.20;;;;;;4932634;29;20407;-75
2021/08/06 03:03:20;;;;;;;1.27;0.70;;;22.40;93.20;;;;;;4932122;29;20081;-74
2021/08/06 03:05:46;;;;;;;1.50;0.70;;;22.40;93.20;;;;;;4931903;29;20047;-75
2021/08/06 03:08:11;;;;;;;1.20;0.50;;;22.40;93.20;;;;;;4932180;29;20031;-75
2021/08/06 03:10:37;;;;;;;2.00;0.50;;;22.40;93.20;;;;;;4930878;29;20023;-75
2021/08/06 03:13:03;;;;;;;1.38;0.80;;;22.40;93.20;;;;;;4931988;28;20165;-75
2021/08/06 03:15:28;;;;;;;1.17;0.63;;;22.40;93.10;;;;;;4931615;28;20038;-75
2021/08/06 03:17:54;;;;;;;1.17;0.60;;;22.40;93.20;;;;;;4932300;29;20031;-75
2021/08/06 03:20:22;;;;;;;2.10;0.60;;;22.40;93.20;;;;;;4931829;29;20098;-75
2021/08/06 03:22:49;;;;;;;1.27;0.75;;;22.40;93.10;;;;;;4931553;28;20522;-75
2021/08/06 03:25:16;;;;;;;1.10;0.70;;;22.40;93.10;;;;;;4931896;29;20043;-75
2021/08/06 03:27:42;;;;;;;2.33;0.63;;;22.40;93.10;;;;;;4931735;29;20016;-75
2021/08/06 03:30:10;;;;;;;4.22;0.60;;;22.40;93.20;;;;;;4930359;28;20123;-75
2021/08/06 03:32:36;;;;;;;1.85;0.60;;;22.40;93.20;;;;;;4931484;29;20052;-75
2021/08/06 03:35:03;;;;;;;2.92;0.60;;;22.40;93.20;;;;;;4931772;29;20055;-75
2021/08/06 03:37:29;;;;;;;1.38;0.60;;;22.40;93.20;;;;;;4931561;28;20024;-75
2021/08/06 03:39:55;;;;;;;2.08;0.80;;;22.40;93.20;;;;;;4931818;29;20107;-75
2021/08/06 03:42:21;;;;;;;2.70;0.77;;;22.40;93.20;;;;;;4931571;29;20035;-75
2021/08/06 03:44:47;;;;;;;2.15;0.68;;;22.30;93.20;;;;;;4931323;29;20376;-75
2021/08/06 03:47:12;;;;;;;1.30;0.68;;;22.30;93.20;;;;;;4931665;28;20032;-75
2021/08/06 03:49:38;;;;;;;2.05;0.60;;;22.30;93.20;;;;;;4931294;28;20035;-75
2021/08/06 03:52:04;;;;;;;1.48;0.80;;;22.30;93.20;;;;;;4931659;28;20028;-74
2021/08/06 03:54:30;;;;;;;2.35;0.55;;;22.30;93.20;;;;;;4930315;29;20028;-75
2021/08/06 03:56:55;;;;;;;2.42;0.70;;;22.30;93.20;;;;;;4931884;29;20032;-74
2021/08/06 03:59:21;;;;;;;0.55;0.50;;;22.30;93.30;;;;;;4930179;28;20082;-74
2021/08/06 04:01:47;;;;;;;1.30;0.70;;;22.30;93.20;;;;;;4931237;29;20043;-74
2021/08/06 04:04:12;;;;;;;1.42;0.60;;;22.30;93.20;;;;;;4931343;29;20110;-74
2021/08/06 04:06:39;;;;;;;1.77;0.60;;;22.30;93.20;;;;;;4931044;29;20039;-74
2021/08/06 04:09:04;;;;;;;1.48;0.80;;;22.30;93.60;;;;;;4931291;29;20024;-75
2021/08/06 04:11:30;;;;;;;2.70;0.90;;;22.30;93.20;;;;;;4930925;28;20042;-75
2021/08/06 04:13:56;;;;;;;2.03;0.70;;;22.30;93.20;;;;;;4931389;28;20421;-74
2021/08/06 04:16:22;;;;;;;2.45;0.60;;;22.30;93.20;;;;;;4930137;29;20032;-75
2021/08/06 04:18:47;;;;;;;3.03;1.10;;;22.30;93.20;;;;;;4930945;29;20024;-75
2021/08/06 04:21:13;;;;;;;2.33;0.80;;;22.30;93.20;;;;;;4931180;29;20028;-75
2021/08/06 04:23:39;;;;;;;3.17;0.75;;;22.30;93.20;;;;;;4931088;29;20506;-75
2021/08/06 04:26:04;;;;;;;1.83;0.60;;;22.30;93.20;;;;;;4931212;28;20110;-75
2021/08/06 04:28:30;;;;;;;1.60;0.68;;;22.30;93.20;;;;;;4930936;28;20058;-75
2021/08/06 04:31:00;;;;;;;2.42;0.80;;;22.30;93.20;;;;;;4931351;28;20082;-75
2021/08/06 04:33:26;;;;;;;2.55;0.80;;;22.20;93.20;;;;;;4929938;29;20480;-75
2021/08/06 04:35:52;;;;;;;2.50;0.80;;;22.20;93.50;;;;;;4931226;29;20036;-75
2021/08/06 04:38:18;;;;;;;2.30;0.82;;;22.20;93.20;;;;;;4931038;29;20565;-74
2021/08/06 04:40:43;;;;;;;3.33;0.98;;;22.20;93.20;;;;;;4930628;29;20510;-74
2021/08/06 04:43:09;;;;;;;1.05;0.60;;;22.20;93.20;;;;;;4930737;29;20028;-75
2021/08/06 04:45:34;;;;;;;1.65;0.60;;;22.20;93.20;;;;;;4930663;29;20040;-75
2021/08/06 04:48:03;;;;;;;3.45;0.90;;;22.20;93.20;;;;;;4930754;28;20024;-75
2021/08/06 04:50:29;;;;;;;1.65;0.70;;;22.20;93.20;;;;;;4930621;29;20044;-75
2021/08/06 04:52:56;;;;;;;1.92;0.70;;;22.20;93.20;;;;;;4931049;29;20023;-74
2021/08/06 04:55:23;;;;;;;2.45;0.80;;;22.20;93.10;;;;;;4930769;28;20487;-75
2021/08/06 04:57:49;;;;;;;1.95;0.90;;;22.20;93.20;;;;;;4930564;29;20020;-74
2021/08/06 05:00:15;;;;;;;2.10;0.90;;;22.20;93.10;;;;;;4930708;29;20027;-73
2021/08/06 05:02:41;;;;;;;1.63;0.80;;;22.20;93.10;;;;;;4930476;29;20028;-75
2021/08/06 05:05:07;;;;;;;1.80;0.90;;;22.20;93.20;;;;;;4930550;29;20040;-75
2021/08/06 05:07:33;;;;;;;1.67;0.70;;;22.20;93.20;;;;;;4933635;29;20031;-74
2021/08/06 05:09:59;;;;;;;3.67;0.80;;;22.20;93.20;;;;;;4933730;29;20419;-74
2021/08/06 05:12:25;;;;;;;2.85;1.10;;;22.20;93.10;;;;;;4934219;29;20020;-74
2021/08/06 05:14:51;;;;;;;4.15;1.00;;;22.20;93.10;;;;;;4933640;29;20023;-74
2021/08/06 05:17:16;;;;;;;2.05;0.88;;;22.20;93.20;;;;;;4933989;29;20027;-74
2021/08/06 05:19:42;;;;;;;2.67;0.77;;;22.10;93.20;;;;;;4933436;29;20039;-74
2021/08/06 05:22:08;;;;;;;3.35;0.73;;;22.10;93.20;;;;;;4933640;29;20480;-74
2021/08/06 05:24:33;;;;;;;1.77;0.80;;;22.10;93.20;;;;;;4933528;29;20118;-75
2021/08/06 05:26:59;;;;;;;2.85;0.75;;;22.10;93.10;;;;;;4933877;29;20110;-75
2021/08/06 05:29:24;;;;;;;4.05;1.17;;;22.10;93.20;;;;;;4934015;29;20123;-75
2021/08/06 05:31:50;;;;;;;3.17;0.75;;;22.10;93.20;;;;;;4933182;29;20035;-75
2021/08/06 05:34:16;;;;;;;1.90;0.68;;;22.10;93.20;;;;;;4933491;29;20388;-75
2021/08/06 05:36:41;;;;;;;2.83;0.80;;;22.10;93.20;;;;;;4933234;29;20032;-74
2021/08/06 05:39:07;;;;;;;1.15;0.80;;;22.10;93.10;;;;;;4933321;29;20028;-74
2021/08/06 05:41:32;;;;;;;3.28;0.70;;;22.10;93.10;;;;;;4932004;29;20124;-74
2021/08/06 05:43:58;;;;;;;1.95;0.80;;;22.10;93.10;;;;;;4933413;28;20496;-74
2021/08/06 05:46:24;;;;;;;3.42;0.73;;;22.10;93.10;;;;;;4933704;28;20039;-74
2021/08/06 05:48:50;;;;;;;1.10;0.70;;;22.10;93.20;;;;;;4933077;28;20040;-75
2021/08/06 05:51:16;;;;;;;2.35;0.80;;;22.10;93.10;;;;;;4933181;29;20024;-74
2021/08/06 05:53:41;;;;;;;2.13;0.80;;;22.10;93.10;;;;;;4932902;29;20027;-74
2021/08/06 05:56:07;;;;;;;1.73;0.70;;;22.10;93.10;;;;;;4933333;29;20035;-74
2021/08/06 05:58:33;;;;;;;1.02;0.60;;;22.10;93.10;;;;;;4933164;29;20027;-74
2021/08/06 06:00:58;;;;;;;2.47;0.80;;;22.10;93.10;;;;;;4933251;29;20039;-74
2021/08/06 06:03:24;;;;;;;3.03;0.98;;;22.10;93.10;;;;;;4933550;29;20098;-75
2021/08/06 06:05:50;;;;;;;2.60;0.70;;;22.10;93.00;;;;;;4932584;29;20039;-75
2021/08/06 06:08:15;;;;;;;4.00;0.90;;;22.10;93.00;;;;;;4932987;28;20038;-75
2021/08/06 06:10:41;;;;;;;1.60;0.60;;;22.10;93.10;;;;;;4932886;28;20074;-74
2021/08/06 06:13:07;;;;;;;2.03;0.90;;;22.00;93.10;;;;;;4933046;28;20028;-74
2021/08/06 06:15:33;;;;;;;2.80;0.80;;;22.10;93.10;;;;;;4932679;29;20077;-74
2021/08/06 06:17:58;;;;;;;4.60;0.90;;;22.10;93.10;;;;;;4932185;28;20123;-74
2021/08/06 06:20:24;;;;;;;6.35;0.90;;;22.00;93.10;;;;;;4933196;29;20106;-75
2021/08/06 06:22:51;;;;;;;1.83;0.82;;;22.00;93.10;;;;;;4932699;29;20089;-75
2021/08/06 06:25:16;;;;;;;4.40;0.85;;;22.00;93.10;;;;;;4932769;29;20082;-75
2021/08/06 06:28:03;;;;;;;2.10;0.98;;;22.10;93.10;;;;;;4932535;28;20055;-75
2021/08/06 06:30:30;;;;;;;1.88;0.50;;;22.00;93.10;;;;;;4932576;29;20101;-75
2021/08/06 06:32:58;;;;;;;4.53;0.80;;;22.00;93.10;;;;;;4932799;29;20093;-74
2021/08/06 06:35:24;;;;;;;1.90;0.90;;;22.00;93.00;;;;;;4932873;29;20384;-74
2021/08/06 06:37:50;;;;;;;2.20;0.80;;;22.00;93.00;;;;;;4931439;29;20451;-75
2021/08/06 06:40:17;;;;;;;2.50;0.95;;;22.00;93.00;;;;;;4932626;29;20141;-74
2021/08/06 06:42:44;;;;;;;5.70;1.05;;;22.00;93.00;;;;;;4932327;29;20032;-74
2021/08/06 06:45:10;;;;;;;2.30;1.02;;;22.00;93.00;;;;;;4938955;29;20506;-74
2021/08/06 06:47:38;;;;;;;1.60;1.00;;;22.00;93.00;;;;;;4951489;29;20030;-74
2021/08/06 06:50:05;;;;;;;3.00;0.80;;;22.00;93.00;;;;;;4948515;29;20078;-74
2021/08/06 06:52:30;;;;;;;1.17;0.70;;;22.00;92.90;;;;;;4932153;29;20372;-74
2021/08/06 06:54:56;;;;;;;2.05;0.82;;;22.00;93.00;;;;;;4932471;29;20039;-75
2021/08/06 06:57:22;;;;;;;2.17;0.90;;;22.00;93.00;;;;;;4998751;28;20021;-75
2021/08/06 06:59:47;;;;;;;2.13;0.80;;;22.00;93.00;;;;;;4970935;28;20036;-75
2021/08/06 07:02:13;;;;;;;1.27;0.60;;;22.00;93.00;;;;;;4932170;29;20028;-76
2021/08/06 07:04:38;;;;;;;1.50;0.70;;;22.00;93.00;;;;;;4937011;28;20145;-76
2021/08/06 07:07:04;;;;;;;1.33;0.70;;;22.00;92.90;;;;;;4928941;28;20028;-76
2021/08/06 07:09:30;;;;;;;2.30;0.80;;;22.00;93.00;;;;;;4930434;29;20515;-76
2021/08/06 07:11:55;;;;;;;2.55;0.90;;;22.00;92.90;;;;;;4931688;29;20519;-77
2021/08/06 07:14:21;;;;;;;1.77;0.90;;;22.00;92.90;;;;;;4932056;28;20023;-76
2021/08/06 07:16:46;;;;;;;2.67;0.90;;;22.00;92.90;;;;;;4931780;29;20523;-77
2021/08/06 07:19:12;;;;;;;2.33;0.90;;;22.00;93.00;;;;;;4931896;29;20027;-76
2021/08/06 07:21:38;;;;;;;1.65;0.90;;;22.10;93.00;;;;;;4930878;29;20384;-76
2021/08/06 07:24:04;;;;;;;4.90;0.90;;;22.10;92.90;;;;;;4930619;28;20031;-75
2021/08/06 07:26:29;;;;;;;2.50;0.70;;;22.10;92.90;;;;;;4931711;29;20066;-76
2021/08/06 07:28:55;;;;;;;3.33;1.85;;;22.10;93.00;;;;;;4932215;29;20020;-76
2021/08/06 07:31:20;;;;;;;2.53;2.08;;;22.10;92.90;;;;;;4931793;29;20039;-75
2021/08/06 07:33:46;;;;;;;28.50;9.05;;;22.10;92.90;;;;;;4931429;28;20379;-76
2021/08/06 07:36:12;;;;;;;29.38;7.10;;;22.20;93.00;;;;;;4929744;29;20074;-79
2021/08/06 07:38:37;;;;;;;18.02;4.47;;;22.10;93.20;;;;;;4931534;28;20024;-76
2021/08/06 07:41:03;;;;;;;15.95;4.05;;;22.20;93.40;;;;;;4931727;28;20031;-76
2021/08/06 07:43:28;;;;;;;11.63;3.25;;;22.10;93.50;;;;;;4931548;28;20031;-76
2021/08/06 07:45:54;;;;;;;11.50;3.60;;;22.20;93.60;;;;;;4930587;29;20069;-76
2021/08/06 07:48:20;;;;;;;14.25;3.67;;;22.20;93.50;;;;;;4931405;28;20040;-76
2021/08/06 07:50:45;;;;;;;10.18;2.58;;;22.20;93.70;;;;;;4982414;28;20034;-76
2021/08/06 07:53:11;;;;;;;9.57;2.65;;;22.20;93.90;;;;;;5011906;28;20078;-76
2021/08/06 07:55:37;;;;;;;6.85;2.65;;;22.20;94.00;;;;;;5010170;28;20025;-76
2021/08/06 07:58:02;;;;;;;8.63;2.33;;;22.20;94.00;;;;;;5011522;28;20540;-76
2021/08/06 08:00:28;;;;;;;11.50;2.30;;;22.20;94.10;;;;;;5011512;28;20025;-78
2021/08/06 08:02:55;;;;;;;9.00;2.20;;;22.20;94.00;;;;;;5011674;28;20104;-78
2021/08/06 08:05:23;;;;;;;13.77;1.90;;;22.20;94.10;;;;;;4970363;28;20043;-78
2021/08/06 08:07:48;;;;;;;8.50;2.03;;;22.30;94.10;;;;;;4930613;29;20424;-78
2021/08/06 08:10:14;;;;;;;6.30;1.75;;;22.30;93.90;;;;;;4930972;28;20035;-78
2021/08/06 08:12:40;;;;;;;9.07;2.22;;;22.30;93.90;;;;;;4929716;29;20016;-78
2021/08/06 08:15:07;;;;;;;7.22;2.22;;;22.30;93.80;;;;;;4931144;29;20560;-77
2021/08/06 08:17:33;;;;;;;8.57;1.30;;;22.30;93.80;;;;;;4930964;29;20368;-76
2021/08/06 08:19:59;;;;;;;5.28;1.98;;;22.30;93.80;;;;;;4929423;28;20039;-77
2021/08/06 08:22:25;;;;;;;7.57;1.40;;;22.30;93.80;;;;;;4931449;28;20532;-75
2021/08/06 08:24:50;;;;;;;5.25;1.42;;;22.30;93.70;;;;;;4930693;29;20124;-75
2021/08/06 08:27:19;;;;;;;23.10;1.83;;;22.30;93.70;;;;;;4931022;29;20532;-75
2021/08/06 08:29:47;;;;;;;3.25;1.20;;;22.30;93.70;;;;;;4928872;29;20028;-74
2021/08/06 08:32:15;;;;;;;10.13;1.90;;;22.30;93.70;;;;;;4931030;28;20051;-74
2021/08/06 08:34:41;;;;;;;7.45;1.85;;;22.40;93.80;;;;;;4930899;28;20058;-75
2021/08/06 08:37:07;;;;;;;4.72;1.15;;;22.40;93.80;;;;;;4930733;29;20028;-73
2021/08/06 08:39:34;;;;;;;6.70;1.35;;;22.40;93.70;;;;;;4929387;28;20024;-75
2021/08/06 08:42:02;;;;;;;5.75;1.30;;;22.40;93.80;;;;;;4930131;29;20476;-74
2021/08/06 08:44:32;;;;;;;5.22;1.63;;;22.50;93.70;;;;;;4933896;29;20036;-73
2021/08/06 08:46:58;;;;;;;5.20;1.20;;;22.40;93.70;;;;;;4933671;29;20032;-74
2021/08/06 08:49:30;;;;;;;2.35;1.08;;;22.50;93.70;;;;;;4948337;28;20032;-74
2021/08/06 08:51:55;;;;;;;7.53;1.17;;;22.50;93.70;;;;;;4977128;28;20511;-73
2021/08/06 08:54:21;;;;;;;5.32;1.30;;;22.50;93.70;;;;;;4932895;28;20020;-76
2021/08/06 08:56:47;;;;;;;6.97;1.02;;;22.50;93.60;;;;;;4933806;28;20123;-76
2021/08/06 08:59:12;;;;;;;3.08;1.20;;;22.50;93.60;;;;;;4934082;28;20043;-76
2021/08/06 09:01:38;;;;;;;6.60;1.33;;;22.60;93.40;;;;;;4933917;29;20038;-74
2021/08/06 09:04:24;;;;;;;4.40;1.10;;;22.60;93.40;;;;;;4933950;29;20078;-74
2021/08/06 09:06:51;;;;;;;8.88;1.65;;;22.60;93.30;;;;;;4933650;29;20036;-76
2021/08/06 09:09:22;;;;;;;6.90;0.98;;;22.60;93.30;;;;;;4934677;28;20062;-73
2021/08/06 09:11:50;;;;;;;4.15;0.90;;;22.60;93.30;;;;;;5014278;28;20072;-74
2021/08/06 09:14:18;;;;;;;5.20;0.93;;;22.60;93.30;;;;;;5014567;28;20018;-74
2021/08/06 09:17:02;;;;;;;5.15;0.80;;;22.60;93.30;;;;;;5013186;28;20053;-74
2021/08/06 09:19:31;;;;;;;3.63;0.75;;;22.60;93.20;;;;;;4933002;29;20020;-75
2021/08/06 09:22:11;;;;;;;4.25;0.95;;;22.60;93.10;;;;;;4948095;29;20039;-75
2021/08/06 09:24:58;;;;;;;4.22;1.00;;;22.70;93.00;;;;;;4932517;29;20040;-76
2021/08/06 09:27:25;;;;;;;6.18;0.85;;;22.70;93.00;;;;;;4933361;29;20027;-75
2021/08/06 09:29:50;;;;;;;3.95;1.10;;;22.60;92.80;;;;;;4933439;29;20047;-75
2021/08/06 09:32:17;;;;;;;2.58;0.88;;;22.70;92.90;;;;;;4933705;29;20024;-75
2021/08/06 09:34:43;;;;;;;4.10;1.23;;;22.70;92.80;;;;;;4931838;29;20111;-75
2021/08/06 09:37:11;;;;;;;4.72;0.90;;;22.70;92.60;;;;;;4933595;28;20491;-75
2021/08/06 09:39:47;;;;;;;3.60;0.95;;;22.70;92.70;;;;;;4933321;29;20483;-76
2021/08/06 09:42:29;;;;;;;4.38;0.98;;;22.70;92.70;;;;;;4933405;29;20031;-76
2021/08/06 09:45:00;;;;;;;5.28;0.93;;;22.70;92.60;;;;;;4933793;29;20043;-76
2021/08/06 09:47:27;;;;;;;2.15;0.70;;;22.70;92.60;;;;;;4933577;28;20424;-75
2021/08/06 09:49:55;;;;;;;3.60;0.90;;;22.70;92.50;;;;;;4933396;28;20089;-76
2021/08/06 09:52:34;;;;;;;2.42;0.95;;;22.80;92.40;;;;;;4932326;29;20028;-75
2021/08/06 09:55:00;;;;;;;3.53;0.65;;;22.80;92.20;;;;;;4933466;28;20031;-76
2021/08/06 09:57:26;;;;;;;1.65;0.80;;;22.80;92.20;;;;;;4948248;29;20032;-76
2021/08/06 09:59:55;;;;;;;2.33;0.73;;;22.80;92.20;;;;;;4933364;29;20047;-76
2021/08/06 10:02:30;;;;;;;3.17;0.80;;;22.80;92.10;;;;;;4933154;29;20031;-76
2021/08/06 10:05:03;;;;;;;2.40;0.70;;;22.80;92.10;;;;;;4933358;29;20047;-76
2021/08/06 10:07:31;;;;;;;3.47;0.98;;;22.80;92.10;;;;;;4933054;29;20020;-76
2021/08/06 10:09:57;;;;;;;5.47;1.20;;;22.70;92.10;;;;;;4933280;28;20032;-75
2021/08/06 10:12:23;;;;;;;1.90;0.93;;;22.80;92.20;;;;;;4933447;29;20557;-75
2021/08/06 10:14:49;;;;;;;1.40;0.60;;;22.80;92.00;;;;;;4932852;28;20582;-75
2021/08/06 10:17:15;;;;;;;2.15;0.60;;;22.80;92.00;;;;;;4932940;28;20031;-75
2021/08/06 10:19:41;;;;;;;2.28;1.00;;;22.70;92.00;;;;;;4932624;29;20020;-75
2021/08/06 10:22:08;;;;;;;1.23;0.57;;;22.70;92.10;;;;;;4933005;28;20028;-75
2021/08/06 10:24:34;;;;;;;2.13;0.80;;;22.70;92.10;;;;;;4932626;28;20111;-77
2021/08/06 10:27:00;;;;;;;2.50;0.70;;;22.70;92.10;;;;;;4932882;29;20052;-75
2021/08/06 10:29:26;;;;;;;2.65;0.70;;;22.70;92.10;;;;;;4933082;29;20486;-77
2021/08/06 10:32:18;;;;;;;2.97;0.60;;;22.70;92.10;;;;;;4931764;29;20031;-77
2021/08/06 10:35:02;;;;;;;1.77;0.68;;;22.60;92.10;;;;;;4935718;28;20419;-76
2021/08/06 10:37:53;;;;;;;6.28;0.73;;;22.60;92.20;;;;;;4932603;29;20024;-76
2021/08/06 10:40:39;;;;;;;1.33;0.60;;;22.60;92.20;;;;;;4932727;29;20497;-75
2021/08/06 10:43:10;;;;;;;3.53;0.90;;;22.60;92.30;;;;;;4945303;28;20036;-76
2021/08/06 10:45:45;;;;;;;2.70;0.75;;;22.60;92.30;;;;;;4932304;29;20035;-76
2021/08/06 10:48:29;;;;;;;2.88;0.90;;;22.60;92.30;;;;;;4932330;28;20035;-76
2021/08/06 10:51:15;;;;;;;2.45;0.60;;;22.60;92.30;;;;;;4932873;29;20154;-76
2021/08/06 10:54:07;;;;;;;2.10;0.75;;;22.60;92.20;;;;;;4932138;29;20031;-76
2021/08/06 10:56:39;;;;;;;2.17;0.60;;;22.70;92.20;;;;;;4932336;29;20036;-75
2021/08/06 10:59:10;;;;;;;1.67;0.65;;;22.80;92.10;;;;;;4932535;29;20031;-75
2021/08/06 11:01:40;;;;;;;2.53;0.70;;;22.80;91.90;;;;;;4932112;29;20031;-76
2021/08/06 11:04:14;;;;;;;2.63;0.70;;;22.80;91.80;;;;;;4931776;29;20036;-75
2021/08/06 11:06:48;;;;;;;1.50;0.47;;;22.80;91.80;;;;;;4932015;29;20031;-75
2021/08/06 11:09:23;;;;;;;1.98;0.70;;;22.80;91.80;;;;;;4932269;29;20028;-75
2021/08/06 11:11:59;;;;;;;1.75;0.63;;;22.80;91.90;;;;;;4931880;28;20658;-75
2021/08/06 11:14:27;;;;;;;;;;;22.80;91.90;;;;;;4932908;29;20073;-76
2021/08/06 11:17:05;;;;;;;3.08;0.70;;;22.80;91.80;;;;;;4932181;29;20435;-75
2021/08/06 11:19:35;;;;;;;4.45;1.08;;;22.90;91.80;;;;;;4931889;29;20110;-76
2021/08/06 11:22:07;;;;;;;3.17;1.02;;;22.90;91.70;;;;;;4931822;29;20487;-75
2021/08/06 11:24:42;;;;;;;2.35;0.80;;;22.90;91.60;;;;;;4935549;28;20031;-75
2021/08/06 11:27:10;;;;;;;1.35;0.70;;;23.00;91.50;;;;;;4943035;28;20024;-74
2021/08/06 11:29:36;;;;;;;3.25;0.80;;;23.00;91.40;;;;;;5011941;28;20026;-74
2021/08/06 11:32:05;;;;;;;2.85;0.52;;;22.90;91.30;;;;;;5012181;28;20029;-74
2021/08/06 11:34:49;;;;;;;3.20;0.73;;;22.90;91.60;;;;;;5011764;28;20026;-77
2021/08/06 11:37:15;;;;;;;4.32;0.82;;;22.90;91.70;;;;;;5010732;28;20386;-74
2021/08/06 11:40:00;;;;;;;2.38;0.85;;;22.90;91.80;;;;;;5011705;28;20026;-74
2021/08/06 11:42:26;;;;;;;1.50;0.60;;;22.90;91.80;;;;;;4971077;28;20552;-74
2021/08/06 11:44:55;;;;;;;1.73;0.60;;;22.80;91.80;;;;;;4938554;28;20122;-74
2021/08/06 11:47:37;;;;;;;1.33;0.60;;;22.80;92.20;;;;;;4930186;29;20522;-73
2021/08/06 11:50:04;;;;;;;2.30;0.73;;;22.90;91.90;;;;;;4930030;29;20032;-73
2021/08/06 11:52:43;;;;;;;3.10;0.82;;;22.80;91.90;;;;;;4929747;28;20032;-73
2021/08/06 11:55:12;;;;;;;2.65;0.70;;;22.80;92.00;;;;;;4929106;28;20024;-81
2021/08/06 11:58:08;;;;;;;2.22;0.57;;;22.90;92.00;;;;;;4927441;29;20020;-75
2021/08/06 12:00:35;;;;;;;1.67;0.60;;;22.90;92.00;;;;;;4927551;28;20054;-80
2021/08/06 12:03:07;;;;;;;1.33;0.50;;;22.80;92.10;;;;;;4933713;29;20050;-76
2021/08/06 12:05:34;;;;;;;2.70;0.75;;;22.90;92.30;;;;;;4932357;28;20039;-77
2021/08/06 12:08:15;;;;;;;3.30;0.63;;;23.00;92.30;;;;;;4931341;28;20038;-78
2021/08/06 12:10:41;;;;;;;1.38;0.60;;;23.00;92.30;;;;;;4928541;28;20040;-80
2021/08/06 12:13:11;;;;;;;2.25;0.77;;;23.00;92.40;;;;;;4932759;28;20442;-78
2021/08/06 12:15:38;;;;;;;3.30;0.50;;;22.90;92.50;;;;;;4930216;29;20024;-78
2021/08/06 12:18:15;;;;;;;1.45;0.60;;;23.00;92.60;;;;;;4934402;29;20028;-77
2021/08/06 12:20:42;;;;;;;1.08;0.50;;;23.00;92.70;;;;;;4931154;29;20052;-77
2021/08/06 12:23:09;;;;;;;2.75;0.80;;;23.00;92.70;;;;;;4936362;28;20028;-80
2021/08/06 12:25:35;;;;;;;4.40;0.70;;;23.00;92.70;;;;;;4930905;28;20394;-78
2021/08/06 12:28:01;;;;;;;3.90;0.60;;;23.00;93.10;;;;;;4931078;28;20028;-76
2021/08/06 12:30:32;;;;;;;4.80;0.68;;;23.10;93.00;;;;;;4927748;29;20111;-74
2021/08/06 12:32:59;;;;;;;6.25;0.90;;;23.20;93.00;;;;;;4930996;29;20039;-74
2021/08/06 12:35:25;;;;;;;2.53;0.70;;;23.20;93.00;;;;;;4931288;29;20035;-77
2021/08/06 12:37:52;;;;;;;2.10;0.65;;;23.30;93.10;;;;;;4930673;29;20031;-75
2021/08/06 12:40:19;;;;;;;1.83;0.70;;;23.30;92.90;;;;;;4979496;28;20026;-76
2021/08/06 12:42:45;;;;;;;1.05;0.50;;;23.30;92.80;;;;;;4949516;28;20031;-77
2021/08/06 12:45:22;;;;;;;3.75;0.77;;;23.40;92.70;;;;;;4929730;28;20043;-77
2021/08/06 12:47:49;;;;;;;2.58;0.60;;;23.50;92.60;;;;;;4930896;28;20042;-81
2021/08/06 12:50:35;;;;;;;5.55;0.75;;;23.50;92.50;;;;;;4929530;29;20039;-79
2021/08/06 12:53:06;;;;;;;;;;;23.50;92.30;;;;;;4929031;28;20502;-78
2021/08/06 12:55:33;;;;;;;4.43;0.60;;;23.60;92.40;;;;;;4930706;29;19907;-78